sensor_id;sensor_type;location;lat;lon;timestamp;pressure;altitude;pressure_sealevel;temperature;humidity
20889;BME280;10604;51.976;7.594;2024-01-06T00:02:24;99394.50;;;22.14;36.12
20889;BME280;10604;51.976;7.594;2024-01-06T00:04:49;99395.28;;;21.05;37.73
20889;BME280;10604;51.976;7.594;2024-01-06T00:07:14;99386.78;;;21.29;37.23
20889;BME280;10604;51.976;7.594;2024-01-06T00:09:39;99394.41;;;20.58;38.30
20889;BME280;10604;51.976;7.594;2024-01-06T00:12:05;99400.47;;;21.54;37.10
20889;BME280;10604;51.976;7.594;2024-01-06T00:14:30;99392.72;;;22.05;36.37
20889;BME280;10604;51.976;7.594;2024-01-06T00:16:55;99402.78;;;21.48;36.56
20889;BME280;10604;51.976;7.594;2024-01-06T00:19:21;99397.75;;;21.91;36.74
20889;BME280;10604;51.976;7.594;2024-01-06T00:21:46;99400.03;;;22.48;35.85
20889;BME280;10604;51.976;7.594;2024-01-06T00:24:11;99411.44;;;22.86;35.25
20889;BME280;10604;51.976;7.594;2024-01-06T00:26:36;99412.59;;;22.83;35.31
20889;BME280;10604;51.976;7.594;2024-01-06T00:29:01;99414.28;;;20.65;37.84
20889;BME280;10604;51.976;7.594;2024-01-06T00:31:27;99423.97;;;21.52;37.76
20889;BME280;10604;51.976;7.594;2024-01-06T00:33:52;99418.88;;;21.48;37.31
20889;BME280;10604;51.976;7.594;2024-01-06T00:36:17;99430.13;;;21.15;38.05
20889;BME280;10604;51.976;7.594;2024-01-06T00:38:42;99424.47;;;20.52;39.22
20889;BME280;10604;51.976;7.594;2024-01-06T00:41:08;99423.34;;;22.12;36.54
20889;BME280;10604;51.976;7.594;2024-01-06T00:43:33;99428.75;;;22.48;36.26
20889;BME280;10604;51.976;7.594;2024-01-06T00:45:58;99433.66;;;22.35;36.15
20889;BME280;10604;51.976;7.594;2024-01-06T00:48:23;99427.19;;;22.63;36.02
20889;BME280;10604;51.976;7.594;2024-01-06T00:50:48;99430.50;;;22.92;35.54
20889;BME280;10604;51.976;7.594;2024-01-06T00:53:14;99430.06;;;22.44;35.80
20889;BME280;10604;51.976;7.594;2024-01-06T00:55:39;99434.72;;;22.42;35.82
20889;BME280;10604;51.976;7.594;2024-01-06T00:58:04;99429.44;;;22.50;35.97
20889;BME280;10604;51.976;7.594;2024-01-06T01:00:29;99441.97;;;22.23;36.38
20889;BME280;10604;51.976;7.594;2024-01-06T01:02:55;99437.78;;;22.47;35.83
20889;BME280;10604;51.976;7.594;2024-01-06T01:05:20;99432.22;;;21.95;36.63
20889;BME280;10604;51.976;7.594;2024-01-06T01:07:45;99442.41;;;22.37;35.81
20889;BME280;10604;51.976;7.594;2024-01-06T01:10:10;99445.03;;;22.29;36.04
20889;BME280;10604;51.976;7.594;2024-01-06T01:12:36;99453.63;;;22.50;35.72
20889;BME280;10604;51.976;7.594;2024-01-06T01:15:01;99466.00;;;22.43;35.95
20889;BME280;10604;51.976;7.594;2024-01-06T01:17:26;99468.22;;;22.65;35.40
20889;BME280;10604;51.976;7.594;2024-01-06T01:19:52;99467.84;;;22.42;35.56
20889;BME280;10604;51.976;7.594;2024-01-06T01:22:17;99470.59;;;22.50;35.56
20889;BME280;10604;51.976;7.594;2024-01-06T01:24:42;99466.59;;;22.54;35.64
20889;BME280;10604;51.976;7.594;2024-01-06T01:27:08;99477.44;;;22.45;35.56
20889;BME280;10604;51.976;7.594;2024-01-06T01:29:33;99478.88;;;21.94;36.02
20889;BME280;10604;51.976;7.594;2024-01-06T01:31:58;99477.81;;;22.50;35.64
20889;BME280;10604;51.976;7.594;2024-01-06T01:34:23;99478.53;;;22.52;35.73
20889;BME280;10604;51.976;7.594;2024-01-06T01:36:48;99480.84;;;22.19;35.94
20889;BME280;10604;51.976;7.594;2024-01-06T01:39:14;99487.81;;;22.12;35.83
20889;BME280;10604;51.976;7.594;2024-01-06T01:41:39;99478.16;;;22.19;36.19
20889;BME280;10604;51.976;7.594;2024-01-06T01:44:05;99482.78;;;22.09;36.46
20889;BME280;10604;51.976;7.594;2024-01-06T01:46:30;99486.59;;;22.24;35.89
20889;BME280;10604;51.976;7.594;2024-01-06T01:48:56;99485.38;;;20.89;37.76
20889;BME280;10604;51.976;7.594;2024-01-06T01:51:22;99491.63;;;21.82;36.35
20889;BME280;10604;51.976;7.594;2024-01-06T01:53:48;99500.13;;;21.78;36.06
20889;BME280;10604;51.976;7.594;2024-01-06T01:56:14;99496.50;;;22.51;35.62
20889;BME280;10604;51.976;7.594;2024-01-06T01:58:39;99501.47;;;22.64;35.33
20889;BME280;10604;51.976;7.594;2024-01-06T02:01:05;99505.97;;;22.46;35.56
20889;BME280;10604;51.976;7.594;2024-01-06T02:03:31;99511.13;;;21.47;36.30
20889;BME280;10604;51.976;7.594;2024-01-06T02:05:57;99509.91;;;20.94;37.01
20889;BME280;10604;51.976;7.594;2024-01-06T02:08:22;99511.22;;;21.56;36.22
20889;BME280;10604;51.976;7.594;2024-01-06T02:10:48;99520.59;;;21.52;36.19
20889;BME280;10604;51.976;7.594;2024-01-06T02:13:13;99512.25;;;21.82;35.53
20889;BME280;10604;51.976;7.594;2024-01-06T02:15:39;99516.19;;;21.51;35.83
20889;BME280;10604;51.976;7.594;2024-01-06T02:18:04;99519.66;;;21.70;35.69
20889;BME280;10604;51.976;7.594;2024-01-06T02:20:30;99518.72;;;21.89;35.33
20889;BME280;10604;51.976;7.594;2024-01-06T02:22:55;99520.28;;;21.55;35.73
20889;BME280;10604;51.976;7.594;2024-01-06T02:25:22;99519.13;;;21.67;35.36
20889;BME280;10604;51.976;7.594;2024-01-06T02:27:47;99518.38;;;22.11;34.77
20889;BME280;10604;51.976;7.594;2024-01-06T02:30:12;99528.25;;;21.27;35.52
20889;BME280;10604;51.976;7.594;2024-01-06T02:32:37;99529.38;;;21.81;35.33
20889;BME280;10604;51.976;7.594;2024-01-06T02:35:03;99539.31;;;22.08;35.08
20889;BME280;10604;51.976;7.594;2024-01-06T02:37:28;99543.75;;;21.99;34.96
20889;BME280;10604;51.976;7.594;2024-01-06T02:39:53;99548.69;;;21.47;35.78
20889;BME280;10604;51.976;7.594;2024-01-06T02:42:18;99556.19;;;21.91;35.37
20889;BME280;10604;51.976;7.594;2024-01-06T02:44:44;99547.97;;;21.55;35.56
20889;BME280;10604;51.976;7.594;2024-01-06T02:47:09;99557.97;;;22.37;34.63
20889;BME280;10604;51.976;7.594;2024-01-06T02:49:34;99552.63;;;22.09;34.74
20889;BME280;10604;51.976;7.594;2024-01-06T02:52:00;99562.00;;;21.01;35.88
20889;BME280;10604;51.976;7.594;2024-01-06T02:54:25;99561.81;;;21.51;35.85
20889;BME280;10604;51.976;7.594;2024-01-06T02:56:50;99567.22;;;21.31;36.07
20889;BME280;10604;51.976;7.594;2024-01-06T02:59:15;99561.69;;;21.89;35.31
20889;BME280;10604;51.976;7.594;2024-01-06T03:01:41;99565.41;;;21.88;35.48
20889;BME280;10604;51.976;7.594;2024-01-06T03:04:06;99567.19;;;21.41;35.62
20889;BME280;10604;51.976;7.594;2024-01-06T03:06:31;99575.22;;;22.16;34.99
20889;BME280;10604;51.976;7.594;2024-01-06T03:08:57;99575.47;;;22.41;34.66
20889;BME280;10604;51.976;7.594;2024-01-06T03:11:22;99579.94;;;21.95;35.24
20889;BME280;10604;51.976;7.594;2024-01-06T03:13:47;99573.00;;;22.02;35.07
20889;BME280;10604;51.976;7.594;2024-01-06T03:16:12;99576.44;;;21.75;35.52
20889;BME280;10604;51.976;7.594;2024-01-06T03:18:38;99582.03;;;21.92;35.37
20889;BME280;10604;51.976;7.594;2024-01-06T03:21:03;99580.56;;;22.16;35.18
20889;BME280;10604;51.976;7.594;2024-01-06T03:23:28;99578.94;;;21.96;35.26
20889;BME280;10604;51.976;7.594;2024-01-06T03:25:54;99576.81;;;21.90;35.38
20889;BME280;10604;51.976;7.594;2024-01-06T03:28:19;99583.81;;;21.73;35.60
20889;BME280;10604;51.976;7.594;2024-01-06T03:30:44;99598.22;;;20.66;37.13
20889;BME280;10604;51.976;7.594;2024-01-06T03:33:09;99594.47;;;21.36;36.16
20889;BME280;10604;51.976;7.594;2024-01-06T03:35:35;99599.00;;;20.38;37.91
20889;BME280;10604;51.976;7.594;2024-01-06T03:38:00;99593.75;;;21.34;36.47
20889;BME280;10604;51.976;7.594;2024-01-06T03:40:25;99597.66;;;21.69;35.97
20889;BME280;10604;51.976;7.594;2024-01-06T03:42:50;99608.97;;;21.05;36.94
20889;BME280;10604;51.976;7.594;2024-01-06T03:45:15;99611.28;;;21.38;36.42
20889;BME280;10604;51.976;7.594;2024-01-06T03:47:41;99612.00;;;21.21;36.68
20889;BME280;10604;51.976;7.594;2024-01-06T03:50:06;99617.47;;;21.48;36.39
20889;BME280;10604;51.976;7.594;2024-01-06T03:52:31;99614.88;;;21.76;35.79
20889;BME280;10604;51.976;7.594;2024-01-06T03:54:57;99612.94;;;21.59;36.05
20889;BME280;10604;51.976;7.594;2024-01-06T03:57:22;99627.88;;;21.03;36.59
20889;BME280;10604;51.976;7.594;2024-01-06T03:59:47;99621.72;;;21.51;36.25
20889;BME280;10604;51.976;7.594;2024-01-06T04:02:12;99620.00;;;21.60;36.29
20889;BME280;10604;51.976;7.594;2024-01-06T04:04:38;99625.06;;;21.63;36.15
20889;BME280;10604;51.976;7.594;2024-01-06T04:07:03;99635.53;;;21.46;35.93
20889;BME280;10604;51.976;7.594;2024-01-06T04:09:28;99645.19;;;20.70;36.07
20889;BME280;10604;51.976;7.594;2024-01-06T04:11:53;99647.38;;;21.05;36.74
20889;BME280;10604;51.976;7.594;2024-01-06T04:14:19;99650.66;;;21.67;35.73
20889;BME280;10604;51.976;7.594;2024-01-06T04:16:44;99660.91;;;20.85;36.67
20889;BME280;10604;51.976;7.594;2024-01-06T04:19:09;99652.44;;;20.89;36.60
20889;BME280;10604;51.976;7.594;2024-01-06T04:21:36;99655.09;;;20.40;37.07
20889;BME280;10604;51.976;7.594;2024-01-06T04:24:02;99663.63;;;20.54;37.29
20889;BME280;10604;51.976;7.594;2024-01-06T04:26:27;99652.66;;;20.57;37.18
20889;BME280;10604;51.976;7.594;2024-01-06T04:28:52;99659.41;;;20.01;37.24
20889;BME280;10604;51.976;7.594;2024-01-06T04:31:17;99662.47;;;20.47;37.07
20889;BME280;10604;51.976;7.594;2024-01-06T04:33:42;99673.47;;;20.44;36.89
20889;BME280;10604;51.976;7.594;2024-01-06T04:36:08;99674.13;;;20.77;36.73
20889;BME280;10604;51.976;7.594;2024-01-06T04:38:33;99677.94;;;20.34;37.21
20889;BME280;10604;51.976;7.594;2024-01-06T04:40:58;99676.94;;;20.65;36.70
20889;BME280;10604;51.976;7.594;2024-01-06T04:43:23;99674.31;;;20.45;36.81
20889;BME280;10604;51.976;7.594;2024-01-06T04:45:48;99684.09;;;20.55;36.81
20889;BME280;10604;51.976;7.594;2024-01-06T04:48:15;99675.56;;;20.41;36.91
20889;BME280;10604;51.976;7.594;2024-01-06T04:50:40;99678.72;;;20.46;36.78
20889;BME280;10604;51.976;7.594;2024-01-06T04:53:05;99680.09;;;20.80;36.10
20889;BME280;10604;51.976;7.594;2024-01-06T04:55:31;99678.19;;;20.31;37.11
20889;BME280;10604;51.976;7.594;2024-01-06T04:57:56;99680.78;;;20.73;36.41
20889;BME280;10604;51.976;7.594;2024-01-06T05:00:21;99683.09;;;20.56;36.65
20889;BME280;10604;51.976;7.594;2024-01-06T05:02:47;99681.53;;;19.61;38.13
20889;BME280;10604;51.976;7.594;2024-01-06T05:05:12;99693.31;;;19.90;37.61
20889;BME280;10604;51.976;7.594;2024-01-06T05:07:37;99686.94;;;20.63;36.73
20889;BME280;10604;51.976;7.594;2024-01-06T05:10:02;99694.53;;;20.58;36.73
20889;BME280;10604;51.976;7.594;2024-01-06T05:12:28;99696.56;;;20.76;36.42
20889;BME280;10604;51.976;7.594;2024-01-06T05:14:53;99692.78;;;19.97;37.36
20889;BME280;10604;51.976;7.594;2024-01-06T05:17:18;99689.41;;;19.74;37.87
20889;BME280;10604;51.976;7.594;2024-01-06T05:19:44;99692.19;;;20.14;37.26
20889;BME280;10604;51.976;7.594;2024-01-06T05:22:09;99697.88;;;20.00;37.44
20889;BME280;10604;51.976;7.594;2024-01-06T05:24:34;99700.66;;;19.57;37.60
20889;BME280;10604;51.976;7.594;2024-01-06T05:26:59;99699.78;;;20.09;37.34
20889;BME280;10604;51.976;7.594;2024-01-06T05:29:25;99701.97;;;20.04;37.36
20889;BME280;10604;51.976;7.594;2024-01-06T05:31:51;99713.94;;;20.00;37.17
20889;BME280;10604;51.976;7.594;2024-01-06T05:34:16;99709.53;;;20.40;37.11
20889;BME280;10604;51.976;7.594;2024-01-06T05:36:41;99717.00;;;20.16;37.08
20889;BME280;10604;51.976;7.594;2024-01-06T05:39:07;99725.19;;;20.65;36.40
20889;BME280;10604;51.976;7.594;2024-01-06T05:41:38;99729.59;;;19.83;36.92
20889;BME280;10604;51.976;7.594;2024-01-06T05:44:04;99723.91;;;20.39;36.20
20889;BME280;10604;51.976;7.594;2024-01-06T05:46:29;99730.75;;;20.32;36.64
20889;BME280;10604;51.976;7.594;2024-01-06T05:48:54;99741.31;;;20.24;36.63
20889;BME280;10604;51.976;7.594;2024-01-06T05:51:21;99745.22;;;20.20;36.58
20889;BME280;10604;51.976;7.594;2024-01-06T05:53:46;99742.06;;;20.56;36.22
20889;BME280;10604;51.976;7.594;2024-01-06T05:56:11;99746.13;;;20.91;35.67
20889;BME280;10604;51.976;7.594;2024-01-06T05:58:36;99750.69;;;19.98;36.63
20889;BME280;10604;51.976;7.594;2024-01-06T06:01:02;99754.56;;;20.05;36.77
20889;BME280;10604;51.976;7.594;2024-01-06T06:03:27;99756.13;;;20.28;36.54
20889;BME280;10604;51.976;7.594;2024-01-06T06:05:52;99766.19;;;19.62;36.92
20889;BME280;10604;51.976;7.594;2024-01-06T06:08:18;99758.72;;;19.98;36.80
20889;BME280;10604;51.976;7.594;2024-01-06T06:10:43;99766.75;;;18.33;38.56
20889;BME280;10604;51.976;7.594;2024-01-06T06:13:25;99772.72;;;18.48;39.11
20889;BME280;10604;51.976;7.594;2024-01-06T06:15:51;99773.91;;;19.44;37.60
20889;BME280;10604;51.976;7.594;2024-01-06T06:18:16;99778.94;;;19.04;38.25
20889;BME280;10604;51.976;7.594;2024-01-06T06:20:42;99787.94;;;19.14;38.04
20889;BME280;10604;51.976;7.594;2024-01-06T06:23:08;99792.09;;;19.07;37.98
20889;BME280;10604;51.976;7.594;2024-01-06T06:25:34;99796.53;;;18.40;38.64
20889;BME280;10604;51.976;7.594;2024-01-06T06:27:59;99797.91;;;19.24;37.97
20889;BME280;10604;51.976;7.594;2024-01-06T06:30:25;99795.00;;;19.15;37.84
20889;BME280;10604;51.976;7.594;2024-01-06T06:32:51;99799.56;;;19.36;37.37
20889;BME280;10604;51.976;7.594;2024-01-06T06:35:16;99791.13;;;19.94;36.57
20889;BME280;10604;51.976;7.594;2024-01-06T06:37:41;99807.59;;;19.36;37.31
20889;BME280;10604;51.976;7.594;2024-01-06T06:40:06;99817.69;;;19.21;37.54
20889;BME280;10604;51.976;7.594;2024-01-06T06:42:32;99829.81;;;19.90;36.62
20889;BME280;10604;51.976;7.594;2024-01-06T06:44:57;99828.41;;;19.75;36.72
20889;BME280;10604;51.976;7.594;2024-01-06T06:47:22;99833.59;;;18.56;37.90
20889;BME280;10604;51.976;7.594;2024-01-06T06:49:47;99830.25;;;19.09;37.64
20889;BME280;10604;51.976;7.594;2024-01-06T06:52:13;99837.38;;;18.64;38.03
20889;BME280;10604;51.976;7.594;2024-01-06T06:54:38;99840.69;;;19.01;37.75
20889;BME280;10604;51.976;7.594;2024-01-06T06:57:03;99846.53;;;19.17;37.26
20889;BME280;10604;51.976;7.594;2024-01-06T06:59:28;99854.53;;;19.51;36.94
20889;BME280;10604;51.976;7.594;2024-01-06T07:01:54;99856.19;;;19.74;36.60
20889;BME280;10604;51.976;7.594;2024-01-06T07:04:19;99866.59;;;19.88;36.15
20889;BME280;10604;51.976;7.594;2024-01-06T07:06:44;99861.53;;;19.74;36.35
20889;BME280;10604;51.976;7.594;2024-01-06T07:09:09;99862.78;;;19.59;36.64
20889;BME280;10604;51.976;7.594;2024-01-06T07:11:35;99872.78;;;19.01;37.50
20889;BME280;10604;51.976;7.594;2024-01-06T07:14:00;99875.44;;;19.12;37.37
20889;BME280;10604;51.976;7.594;2024-01-06T07:16:25;99889.63;;;18.80;37.81
20889;BME280;10604;51.976;7.594;2024-01-06T07:18:50;99885.63;;;19.41;37.15
20889;BME280;10604;51.976;7.594;2024-01-06T07:21:15;99887.84;;;19.58;37.11
20889;BME280;10604;51.976;7.594;2024-01-06T07:23:41;99905.59;;;18.22;38.23
20889;BME280;10604;51.976;7.594;2024-01-06T07:26:07;99906.19;;;18.96;37.71
20889;BME280;10604;51.976;7.594;2024-01-06T07:28:33;99911.22;;;18.42;38.81
20889;BME280;10604;51.976;7.594;2024-01-06T07:30:58;99904.09;;;19.33;37.29
20889;BME280;10604;51.976;7.594;2024-01-06T07:33:25;99911.53;;;19.29;37.34
20889;BME280;10604;51.976;7.594;2024-01-06T07:35:50;99924.00;;;18.84;37.78
20889;BME280;10604;51.976;7.594;2024-01-06T07:38:15;99916.75;;;18.27;38.20
20889;BME280;10604;51.976;7.594;2024-01-06T07:40:40;99926.94;;;17.75;39.54
20889;BME280;10604;51.976;7.594;2024-01-06T07:43:07;99921.81;;;18.19;38.88
20889;BME280;10604;51.976;7.594;2024-01-06T07:45:32;99930.63;;;19.02;37.38
20889;BME280;10604;51.976;7.594;2024-01-06T07:47:57;99940.09;;;18.25;37.95
20889;BME280;10604;51.976;7.594;2024-01-06T07:50:23;99940.13;;;18.36;38.10
20889;BME280;10604;51.976;7.594;2024-01-06T07:52:48;99941.31;;;18.56;37.74
20889;BME280;10604;51.976;7.594;2024-01-06T07:55:13;99951.19;;;18.43;37.73
20889;BME280;10604;51.976;7.594;2024-01-06T07:57:39;99952.50;;;18.37;38.05
20889;BME280;10604;51.976;7.594;2024-01-06T08:00:04;99954.72;;;18.44;37.67
20889;BME280;10604;51.976;7.594;2024-01-06T08:02:29;99967.34;;;18.76;37.37
20889;BME280;10604;51.976;7.594;2024-01-06T08:04:55;99956.59;;;17.83;38.44
20889;BME280;10604;51.976;7.594;2024-01-06T08:07:21;99961.16;;;18.17;38.56
20889;BME280;10604;51.976;7.594;2024-01-06T08:09:46;99957.03;;;17.51;38.76
20889;BME280;10604;51.976;7.594;2024-01-06T08:12:11;99972.28;;;18.11;38.16
20889;BME280;10604;51.976;7.594;2024-01-06T08:14:37;99969.94;;;18.07;38.18
20889;BME280;10604;51.976;7.594;2024-01-06T08:17:02;99978.69;;;18.56;37.64
20889;BME280;10604;51.976;7.594;2024-01-06T08:19:28;99981.25;;;18.10;38.12
20889;BME280;10604;51.976;7.594;2024-01-06T08:21:55;99985.94;;;17.83;38.72
20889;BME280;10604;51.976;7.594;2024-01-06T08:24:20;99992.09;;;18.44;37.89
20889;BME280;10604;51.976;7.594;2024-01-06T08:26:46;99993.13;;;18.30;38.48
20889;BME280;10604;51.976;7.594;2024-01-06T08:29:11;99997.44;;;18.44;37.58
20889;BME280;10604;51.976;7.594;2024-01-06T08:31:36;100007.31;;;17.32;39.42
20889;BME280;10604;51.976;7.594;2024-01-06T08:34:01;100004.97;;;18.02;38.29
20889;BME280;10604;51.976;7.594;2024-01-06T08:36:27;100006.00;;;18.12;38.57
20889;BME280;10604;51.976;7.594;2024-01-06T08:38:52;100008.69;;;18.84;37.72
20889;BME280;10604;51.976;7.594;2024-01-06T08:41:17;100013.09;;;18.00;38.17
20889;BME280;10604;51.976;7.594;2024-01-06T08:43:42;100018.22;;;17.91;38.68
20889;BME280;10604;51.976;7.594;2024-01-06T08:46:08;100021.28;;;17.74;38.92
20889;BME280;10604;51.976;7.594;2024-01-06T08:48:33;100021.88;;;17.90;38.87
20889;BME280;10604;51.976;7.594;2024-01-06T08:50:58;100025.06;;;17.95;38.34
20889;BME280;10604;51.976;7.594;2024-01-06T08:53:23;100035.72;;;19.03;37.01
20889;BME280;10604;51.976;7.594;2024-01-06T08:55:48;100041.84;;;18.81;37.15
20889;BME280;10604;51.976;7.594;2024-01-06T08:58:14;100042.25;;;17.91;37.96
20889;BME280;10604;51.976;7.594;2024-01-06T09:00:39;100043.50;;;18.34;37.73
20889;BME280;10604;51.976;7.594;2024-01-06T09:03:04;100053.44;;;18.69;36.97
20889;BME280;10604;51.976;7.594;2024-01-06T09:05:29;100054.38;;;19.27;36.61
20889;BME280;10604;51.976;7.594;2024-01-06T09:07:55;100059.13;;;18.88;37.53
20889;BME280;10604;51.976;7.594;2024-01-06T09:10:20;100065.72;;;18.95;36.98
20889;BME280;10604;51.976;7.594;2024-01-06T09:12:45;100061.84;;;18.52;37.40
20889;BME280;10604;51.976;7.594;2024-01-06T09:15:10;100066.53;;;18.61;37.32
20889;BME280;10604;51.976;7.594;2024-01-06T09:17:36;100073.44;;;18.87;37.11
20889;BME280;10604;51.976;7.594;2024-01-06T09:20:01;100081.88;;;17.97;38.33
20889;BME280;10604;51.976;7.594;2024-01-06T09:22:27;100090.00;;;15.82;41.89
20889;BME280;10604;51.976;7.594;2024-01-06T09:24:52;100089.00;;;17.96;38.42
20889;BME280;10604;51.976;7.594;2024-01-06T09:27:18;100097.00;;;17.84;38.58
20889;BME280;10604;51.976;7.594;2024-01-06T09:29:44;100102.44;;;17.44;38.92
20889;BME280;10604;51.976;7.594;2024-01-06T09:32:09;100105.75;;;18.11;38.13
20889;BME280;10604;51.976;7.594;2024-01-06T09:34:34;100099.69;;;18.46;37.59
20889;BME280;10604;51.976;7.594;2024-01-06T09:37:00;100103.78;;;18.75;37.18
20889;BME280;10604;51.976;7.594;2024-01-06T09:39:25;100117.50;;;17.71;38.18
20889;BME280;10604;51.976;7.594;2024-01-06T09:41:50;100122.34;;;18.27;37.28
20889;BME280;10604;51.976;7.594;2024-01-06T09:44:15;100118.66;;;18.17;37.64
20889;BME280;10604;51.976;7.594;2024-01-06T09:46:42;100123.47;;;18.85;36.68
20889;BME280;10604;51.976;7.594;2024-01-06T09:49:08;100121.69;;;18.36;36.92
20889;BME280;10604;51.976;7.594;2024-01-06T09:51:34;100127.66;;;18.53;37.06
20889;BME280;10604;51.976;7.594;2024-01-06T09:54:01;100130.31;;;17.91;37.78
20889;BME280;10604;51.976;7.594;2024-01-06T09:56:28;100130.34;;;18.76;36.53
20889;BME280;10604;51.976;7.594;2024-01-06T09:58:54;100137.06;;;18.46;36.91
20889;BME280;10604;51.976;7.594;2024-01-06T10:01:20;100142.66;;;19.03;35.96
20889;BME280;10604;51.976;7.594;2024-01-06T10:03:46;100142.41;;;18.58;36.26
20889;BME280;10604;51.976;7.594;2024-01-06T10:06:12;100149.34;;;18.61;36.33
20889;BME280;10604;51.976;7.594;2024-01-06T10:08:38;100143.78;;;18.64;36.68
20889;BME280;10604;51.976;7.594;2024-01-06T10:11:05;100145.19;;;18.57;36.58
20889;BME280;10604;51.976;7.594;2024-01-06T10:13:31;100152.84;;;18.49;36.74
20889;BME280;10604;51.976;7.594;2024-01-06T10:15:56;100167.03;;;18.00;37.11
20889;BME280;10604;51.976;7.594;2024-01-06T10:18:21;100164.88;;;18.05;37.18
20889;BME280;10604;51.976;7.594;2024-01-06T10:20:47;100169.19;;;17.95;37.11
20889;BME280;10604;51.976;7.594;2024-01-06T10:23:12;100167.44;;;18.07;36.99
20889;BME280;10604;51.976;7.594;2024-01-06T10:25:37;100166.97;;;18.51;36.53
20889;BME280;10604;51.976;7.594;2024-01-06T10:28:03;100159.84;;;18.38;36.47
20889;BME280;10604;51.976;7.594;2024-01-06T10:30:28;100161.00;;;18.84;35.89
20889;BME280;10604;51.976;7.594;2024-01-06T10:32:53;100162.06;;;18.45;36.57
20889;BME280;10604;51.976;7.594;2024-01-06T10:35:19;100172.13;;;18.28;36.56
20889;BME280;10604;51.976;7.594;2024-01-06T10:37:45;100167.13;;;18.24;36.55
20889;BME280;10604;51.976;7.594;2024-01-06T10:42:36;100167.50;;;18.56;36.20
20889;BME280;10604;51.976;7.594;2024-01-06T10:45:01;100171.94;;;18.06;36.74
20889;BME280;10604;51.976;7.594;2024-01-06T10:47:29;100182.41;;;18.09;36.73
20889;BME280;10604;51.976;7.594;2024-01-06T10:49:58;100183.00;;;18.51;36.36
20889;BME280;10604;51.976;7.594;2024-01-06T10:52:24;100183.25;;;18.22;36.25
20889;BME280;10604;51.976;7.594;2024-01-06T10:54:49;100177.75;;;18.49;36.32
20889;BME280;10604;51.976;7.594;2024-01-06T10:57:16;100182.38;;;18.34;36.83
20889;BME280;10604;51.976;7.594;2024-01-06T10:59:43;100181.94;;;18.66;36.53
20889;BME280;10604;51.976;7.594;2024-01-06T11:02:10;100184.91;;;18.49;36.53
20889;BME280;10604;51.976;7.594;2024-01-06T11:04:35;100184.59;;;18.53;36.44
20889;BME280;10604;51.976;7.594;2024-01-06T11:07:01;100189.53;;;18.47;36.62
20889;BME280;10604;51.976;7.594;2024-01-06T11:09:27;100189.56;;;18.83;36.18
20889;BME280;10604;51.976;7.594;2024-01-06T11:11:56;100193.44;;;18.79;36.28
20889;BME280;10604;51.976;7.594;2024-01-06T11:14:23;100185.66;;;18.63;36.52
20889;BME280;10604;51.976;7.594;2024-01-06T11:16:49;100187.56;;;18.74;36.49
20889;BME280;10604;51.976;7.594;2024-01-06T11:22:17;100187.28;;;18.66;36.64
20889;BME280;10604;51.976;7.594;2024-01-06T11:24:42;100179.25;;;18.66;36.84
20889;BME280;10604;51.976;7.594;2024-01-06T11:27:12;100185.75;;;18.74;36.69
20889;BME280;10604;51.976;7.594;2024-01-06T11:29:42;100186.09;;;18.94;36.41
20889;BME280;10604;51.976;7.594;2024-01-06T11:34:47;100195.22;;;18.29;37.28
20889;BME280;10604;51.976;7.594;2024-01-06T11:37:12;100183.59;;;17.40;38.21
20889;BME280;10604;51.976;7.594;2024-01-06T11:39:40;100186.66;;;18.37;37.14
20889;BME280;10604;51.976;7.594;2024-01-06T11:42:06;100182.38;;;18.34;37.39
20889;BME280;10604;51.976;7.594;2024-01-06T11:44:36;100180.16;;;18.28;37.20
20889;BME280;10604;51.976;7.594;2024-01-06T11:47:02;100183.22;;;16.93;38.53
20889;BME280;10604;51.976;7.594;2024-01-06T11:49:27;100182.84;;;18.03;37.52
20889;BME280;10604;51.976;7.594;2024-01-06T11:51:53;100180.25;;;18.14;37.48
20889;BME280;10604;51.976;7.594;2024-01-06T11:54:18;100182.38;;;18.60;37.05
20889;BME280;10604;51.976;7.594;2024-01-06T11:56:44;100179.56;;;18.49;37.33
20889;BME280;10604;51.976;7.594;2024-01-06T11:59:09;100183.53;;;18.92;36.47
20889;BME280;10604;51.976;7.594;2024-01-06T12:01:40;100188.72;;;19.06;36.09
20889;BME280;10604;51.976;7.594;2024-01-06T12:04:06;100185.19;;;19.30;35.91
20889;BME280;10604;51.976;7.594;2024-01-06T12:06:32;100183.09;;;18.98;36.54
20889;BME280;10604;51.976;7.594;2024-01-06T12:09:07;100192.59;;;19.02;36.34
20889;BME280;10604;51.976;7.594;2024-01-06T12:11:32;100196.28;;;19.12;36.24
20889;BME280;10604;51.976;7.594;2024-01-06T12:13:57;100192.69;;;18.77;36.33
20889;BME280;10604;51.976;7.594;2024-01-06T12:16:23;100194.34;;;18.29;37.05
20889;BME280;10604;51.976;7.594;2024-01-06T12:18:55;100198.22;;;18.25;37.59
20889;BME280;10604;51.976;7.594;2024-01-06T12:21:24;100202.44;;;18.53;36.89
20889;BME280;10604;51.976;7.594;2024-01-06T12:23:50;100201.78;;;18.62;37.07
20889;BME280;10604;51.976;7.594;2024-01-06T12:26:18;100200.94;;;18.49;36.87
20889;BME280;10604;51.976;7.594;2024-01-06T12:28:44;100205.97;;;19.02;36.37
20889;BME280;10604;51.976;7.594;2024-01-06T12:31:10;100199.59;;;18.30;36.92
20889;BME280;10604;51.976;7.594;2024-01-06T12:33:37;100205.88;;;18.42;37.18
20889;BME280;10604;51.976;7.594;2024-01-06T12:36:03;100206.69;;;18.55;36.60
20889;BME280;10604;51.976;7.594;2024-01-06T12:38:29;100217.47;;;18.79;36.49
20889;BME280;10604;51.976;7.594;2024-01-06T12:40:55;100210.59;;;17.88;37.80
20889;BME280;10604;51.976;7.594;2024-01-06T12:43:20;100223.34;;;18.84;36.45
20889;BME280;10604;51.976;7.594;2024-01-06T12:45:45;100218.72;;;18.24;36.71
20889;BME280;10604;51.976;7.594;2024-01-06T12:48:10;100227.78;;;18.60;36.63
20889;BME280;10604;51.976;7.594;2024-01-06T12:50:36;100223.06;;;18.51;36.87
20889;BME280;10604;51.976;7.594;2024-01-06T12:53:02;100229.25;;;17.48;37.90
20889;BME280;10604;51.976;7.594;2024-01-06T12:55:27;100228.50;;;17.98;37.91
20889;BME280;10604;51.976;7.594;2024-01-06T12:57:52;100228.97;;;18.56;36.97